Time;durP1;ratioP1;P1;durP2;ratioP2;P2;SDS_P1;SDS_P2;PMS_P1;PMS_P2;Temp;Humidity;BMP_temperature;BMP_pressure;BME280_temperature;BME280_humidity;BME280_pressure;Samples;Min_cycle;Max_cycle;Signal;HPM_P1;HPM_P2
2021/12/22 00:00:55;;;;;;;22.63;8.15;;;-2.10;99.90;;;;;;5093140;28;20115;-48
2021/12/22 00:03:21;;;;;;;16.55;7.40;;;-2.10;99.90;;;;;;5093133;28;20051;-48
2021/12/22 00:05:48;;;;;;;25.83;9.50;;;-2.00;99.90;;;;;;5092472;28;20028;-49
2021/12/22 00:08:14;;;;;;;21.40;9.02;;;-1.90;99.90;;;;;;5092296;28;20149;-47
2021/12/22 00:10:41;;;;;;;24.33;9.63;;;-1.90;99.90;;;;;;5090997;28;20023;-47
2021/12/22 00:13:07;;;;;;;30.88;9.93;;;-1.80;99.90;;;;;;5083163;28;20171;-48
2021/12/22 00:15:32;;;;;;;17.92;7.22;;;-1.80;99.90;;;;;;5092515;28;20113;-50
2021/12/22 00:17:58;;;;;;;80.32;11.60;;;-1.90;99.90;;;;;;5090502;28;20030;-47
2021/12/22 00:20:24;;;;;;;18.55;8.30;;;-2.00;99.90;;;;;;5092574;28;20092;-51
2021/12/22 00:22:49;;;;;;;20.95;9.48;;;-1.90;99.90;;;;;;5092243;28;20051;-50
2021/12/22 00:25:16;;;;;;;23.80;8.15;;;-1.80;99.90;;;;;;5092648;28;20020;-50
2021/12/22 00:27:41;;;;;;;44.65;10.50;;;-1.80;99.90;;;;;;5090523;28;20031;-48
2021/12/22 00:30:09;;;;;;;28.90;9.50;;;-1.80;99.90;;;;;;5092035;28;20413;-48
2021/12/22 00:32:37;;;;;;;37.88;10.57;;;-1.80;99.90;;;;;;5092713;28;20028;-49
2021/12/22 00:35:04;;;;;;;24.05;9.13;;;-1.80;99.90;;;;;;5090755;28;20031;-47
2021/12/22 00:37:30;;;;;;;25.75;10.05;;;-1.90;99.90;;;;;;5106933;28;20019;-47
2021/12/22 00:39:56;;;;;;;24.00;10.27;;;-1.80;99.90;;;;;;5090864;28;20128;-47
2021/12/22 00:42:24;;;;;;;20.50;9.13;;;-1.80;99.90;;;;;;5079782;28;20472;-48
2021/12/22 00:44:53;;;;;;;46.88;10.35;;;-1.70;99.90;;;;;;5074019;28;20512;-47
2021/12/22 00:47:21;;;;;;;19.00;8.20;;;-1.70;99.90;;;;;;5069797;28;20070;-47
2021/12/22 00:49:47;;;;;;;19.30;7.93;;;-1.70;99.90;;;;;;5070150;28;20033;-47
2021/12/22 00:52:13;;;;;;;53.35;9.90;;;-1.70;99.90;;;;;;5070054;28;20335;-47
2021/12/22 00:54:39;;;;;;;14.88;7.47;;;-1.80;99.90;;;;;;5070303;28;20267;-47
2021/12/22 00:57:06;;;;;;;22.60;9.68;;;-1.90;99.90;;;;;;5070177;28;20099;-50
2021/12/22 00:59:34;;;;;;;22.65;8.00;;;-2.00;99.90;;;;;;5069883;28;20233;-48
2021/12/22 01:02:01;;;;;;;23.35;8.82;;;-2.00;99.90;;;;;;5070267;28;20519;-48
2021/12/22 01:04:27;;;;;;;21.95;8.15;;;-2.00;99.90;;;;;;5070164;28;20029;-47
2021/12/22 01:06:52;;;;;;;17.50;7.10;;;-1.90;99.90;;;;;;5069850;28;20531;-48
2021/12/22 01:09:18;;;;;;;14.30;6.97;;;-1.90;99.90;;;;;;5069532;28;20040;-47
2021/12/22 01:11:44;;;;;;;19.60;6.32;;;-1.90;99.90;;;;;;5076352;28;20009;-50
2021/12/22 01:14:10;;;;;;;13.98;6.15;;;-1.90;99.90;;;;;;5081933;28;20493;-48
2021/12/22 01:16:36;;;;;;;31.65;8.13;;;-1.80;99.90;;;;;;5090249;28;20017;-48
2021/12/22 01:19:06;;;;;;;17.95;6.43;;;-1.90;99.90;;;;;;5089482;28;20028;-47
2021/12/22 01:21:49;;;;;;;;;;;-2.00;99.90;;;;;;5090688;28;20486;-49
2021/12/22 01:24:22;;;;;;;21.77;7.43;;;-2.00;99.90;;;;;;5090128;28;20301;-47
2021/12/22 01:26:53;;;;;;;19.98;7.85;;;-2.00;99.90;;;;;;5089908;28;20031;-47
2021/12/22 01:29:19;;;;;;;25.27;8.68;;;-2.20;99.90;;;;;;5089611;28;20053;-49
2021/12/22 01:31:44;;;;;;;19.98;8.25;;;-2.10;99.90;;;;;;5089984;28;20104;-47
2021/12/22 01:34:11;;;;;;;27.50;9.85;;;-2.10;99.90;;;;;;5090022;28;20488;-48
2021/12/22 01:36:37;;;;;;;17.00;8.23;;;-2.00;99.90;;;;;;5090019;28;20028;-47
2021/12/22 01:39:04;;;;;;;22.88;8.15;;;-2.00;99.90;;;;;;5052340;28;1063777;-49
2021/12/22 01:41:30;;;;;;;26.80;9.02;;;-2.10;99.90;;;;;;5087205;28;20504;-47
2021/12/22 01:43:55;;;;;;;69.38;12.13;;;-2.00;99.90;;;;;;5082499;28;20055;-49
2021/12/22 01:49:10;;;;;;;28.73;8.82;;;-2.10;99.90;;;;;;5090224;28;20063;-47
2021/12/22 01:51:44;;;;;;;28.38;8.65;;;-2.10;99.90;;;;;;5090673;28;20098;-48
2021/12/22 01:54:19;;;;;;;77.53;13.05;;;-2.10;99.90;;;;;;5089126;28;20062;-49
2021/12/22 01:56:46;;;;;;;33.47;10.18;;;-2.20;99.90;;;;;;5090331;28;20466;-47
2021/12/22 01:59:12;;;;;;;21.48;8.73;;;-2.30;99.90;;;;;;5090113;28;20115;-49
2021/12/22 02:01:39;;;;;;;23.45;8.68;;;-2.20;99.90;;;;;;5090657;28;20106;-48
2021/12/22 02:04:10;;;;;;;27.83;9.07;;;-2.20;99.90;;;;;;5090358;28;20519;-48
2021/12/22 02:06:39;;;;;;;26.20;9.57;;;-2.10;99.90;;;;;;5089104;28;20082;-50
2021/12/22 02:09:05;;;;;;;21.80;9.77;;;-2.10;99.90;;;;;;5088873;28;20020;-46
2021/12/22 02:11:31;;;;;;;20.30;8.65;;;-2.00;99.90;;;;;;5086499;28;20018;-47
2021/12/22 02:14:01;;;;;;;25.63;9.80;;;-1.90;99.90;;;;;;5081686;28;20024;-47
2021/12/22 02:16:30;;;;;;;24.73;10.77;;;-1.90;99.90;;;;;;5089987;28;20024;-48
2021/12/22 02:18:57;;;;;;;51.38;9.70;;;-1.90;99.90;;;;;;5088115;28;20212;-50
2021/12/22 02:21:26;;;;;;;61.45;11.80;;;-1.90;99.90;;;;;;5090167;28;20100;-49
2021/12/22 02:23:52;;;;;;;22.27;8.85;;;-2.00;99.90;;;;;;5089998;28;20028;-47
2021/12/22 02:27:06;;;;;;;24.95;9.27;;;-2.00;99.90;;;;;;5088413;28;20053;-49
2021/12/22 02:29:18;;;;;;;46.15;10.80;;;-1.90;99.90;;;;;;5085924;28;20044;-50
2021/12/22 02:31:48;;;;;;;32.50;9.35;;;-2.10;99.90;;;;;;5089925;28;20016;-47
2021/12/22 02:34:14;;;;;;;55.83;11.18;;;-2.10;99.90;;;;;;5089814;28;20023;-47
2021/12/22 02:36:41;;;;;;;54.85;11.07;;;-2.00;99.90;;;;;;5089720;28;20476;-48
2021/12/22 02:39:07;;;;;;;20.45;9.60;;;-2.10;99.90;;;;;;5089160;28;20046;-47
2021/12/22 02:41:37;;;;;;;19.38;9.13;;;-2.00;99.90;;;;;;5087298;28;20046;-46
2021/12/22 02:44:03;;;;;;;31.50;10.30;;;-2.10;99.90;;;;;;5081156;28;20067;-47
2021/12/22 02:46:35;;;;;;;27.48;9.65;;;-2.00;99.90;;;;;;5089662;28;20020;-47
2021/12/22 02:49:04;;;;;;;19.88;8.32;;;-2.00;99.90;;;;;;5088816;28;20489;-47
2021/12/22 02:51:30;;;;;;;21.20;9.02;;;-1.90;99.90;;;;;;5089439;28;20109;-46
2021/12/22 02:56:38;;;;;;;21.83;9.30;;;-1.80;99.90;;;;;;5089547;28;20031;-47
2021/12/22 03:04:10;;;;;;;22.75;11.00;;;-1.80;99.90;;;;;;5089163;28;20031;-46
2021/12/22 03:06:55;;;;;;;28.20;10.18;;;-2.00;99.90;;;;;;5089354;28;20028;-47
2021/12/22 03:09:25;;;;;;;44.15;10.57;;;-2.00;99.90;;;;;;5088566;28;20456;-47
2021/12/22 03:11:53;;;;;;;37.30;11.20;;;-2.20;99.90;;;;;;5086408;28;20100;-48
2021/12/22 03:14:20;;;;;;;20.23;9.27;;;-2.20;99.90;;;;;;5073108;28;20043;-47
2021/12/22 03:16:46;;;;;;;21.05;9.27;;;-2.30;99.90;;;;;;5087772;28;20056;-50
2021/12/22 03:19:14;;;;;;;21.02;9.32;;;-2.20;99.90;;;;;;5088414;28;20035;-47
2021/12/22 03:21:41;;;;;;;19.67;8.10;;;-2.30;99.90;;;;;;5089069;28;20110;-48
2021/12/22 03:24:08;;;;;;;25.48;9.60;;;-2.20;99.90;;;;;;5088983;28;20028;-46
2021/12/22 03:26:40;;;;;;;42.25;9.45;;;-2.10;99.90;;;;;;5088872;28;20171;-50
2021/12/22 03:29:06;;;;;;;21.48;8.63;;;-2.30;99.90;;;;;;5088358;28;20024;-48
2021/12/22 03:31:31;;;;;;;24.58;9.57;;;-2.20;99.90;;;;;;5088872;28;20028;-47
2021/12/22 03:33:57;;;;;;;28.00;9.73;;;-2.30;99.90;;;;;;5089115;28;20028;-47
2021/12/22 03:36:22;;;;;;;27.65;9.48;;;-2.30;99.90;;;;;;5088924;28;20055;-47
2021/12/22 03:38:48;;;;;;;27.73;10.82;;;-2.30;99.90;;;;;;5088213;28;20044;-48
2021/12/22 03:41:14;;;;;;;25.45;10.52;;;-2.20;99.90;;;;;;5086464;28;20219;-47
2021/12/22 03:43:39;;;;;;;26.30;10.60;;;-2.20;99.90;;;;;;5080816;28;20043;-47
2021/12/22 03:46:05;;;;;;;23.48;10.70;;;-2.20;99.90;;;;;;5089018;28;20173;-47
2021/12/22 03:48:30;;;;;;;25.70;9.80;;;-2.20;99.90;;;;;;5088822;28;20063;-48
2021/12/22 03:50:56;;;;;;;26.88;10.25;;;-2.10;99.90;;;;;;5089390;28;20458;-48
2021/12/22 03:53:22;;;;;;;23.15;9.55;;;-2.10;99.90;;;;;;5089237;28;20039;-47
2021/12/22 03:55:47;;;;;;;25.55;10.70;;;-2.10;99.90;;;;;;5088836;28;20036;-47
2021/12/22 03:58:13;;;;;;;28.88;10.30;;;-2.10;99.90;;;;;;5087876;28;20020;-47
2021/12/22 04:00:41;;;;;;;26.10;10.85;;;-2.20;99.90;;;;;;5088449;28;20497;-47
2021/12/22 04:03:16;;;;;;;29.90;12.18;;;-2.10;99.90;;;;;;5088575;28;20024;-49
2021/12/22 04:05:43;;;;;;;24.40;10.88;;;-2.10;99.90;;;;;;5088693;28;20057;-48
2021/12/22 04:08:10;;;;;;;60.92;15.40;;;-2.10;99.90;;;;;;5087943;28;20023;-47
2021/12/22 04:10:36;;;;;;;30.25;12.82;;;-2.00;99.90;;;;;;5088713;28;20016;-50
2021/12/22 04:13:02;;;;;;;29.73;12.20;;;-2.10;99.90;;;;;;5078346;28;20032;-47
2021/12/22 04:15:28;;;;;;;31.38;12.02;;;-2.10;99.90;;;;;;5088687;28;20054;-47
2021/12/22 04:17:54;;;;;;;29.92;13.10;;;-2.00;99.90;;;;;;5088117;28;20043;-47
2021/12/22 04:20:20;;;;;;;29.38;12.48;;;-2.00;99.90;;;;;;5088627;28;20032;-47
2021/12/22 04:22:46;;;;;;;37.95;12.55;;;-2.00;99.90;;;;;;5087355;28;20035;-47
2021/12/22 04:25:20;;;;;;;24.05;11.23;;;-2.00;99.90;;;;;;5088845;28;20060;-48
2021/12/22 04:27:46;;;;;;;26.80;12.35;;;-2.00;99.90;;;;;;5087657;28;20165;-49
2021/12/22 04:30:12;;;;;;;26.02;10.70;;;-1.90;99.90;;;;;;5087264;28;20282;-47
2021/12/22 04:32:38;;;;;;;31.35;11.85;;;-1.90;99.90;;;;;;5090288;28;20027;-48
2021/12/22 04:35:03;;;;;;;33.28;12.40;;;-1.90;99.90;;;;;;5092290;28;20060;-50
2021/12/22 04:37:29;;;;;;;27.40;11.63;;;-1.90;99.90;;;;;;5089823;28;20030;-48
2021/12/22 04:39:54;;;;;;;25.45;11.27;;;-2.00;99.90;;;;;;5071345;28;20094;-50
2021/12/22 04:42:20;;;;;;;24.52;9.45;;;-2.20;99.90;;;;;;5075691;28;20034;-47
2021/12/22 04:44:46;;;;;;;30.48;9.80;;;-2.20;99.90;;;;;;5073569;28;20059;-47
2021/12/22 04:47:11;;;;;;;26.88;10.50;;;-2.10;99.90;;;;;;5071226;28;20488;-47
2021/12/22 04:49:39;;;;;;;25.77;9.75;;;-2.10;99.90;;;;;;5071189;28;20060;-47
2021/12/22 04:52:07;;;;;;;77.10;11.85;;;-2.00;99.90;;;;;;5071519;28;20156;-47
2021/12/22 04:54:43;;;;;;;29.38;9.98;;;-2.10;99.90;;;;;;5071021;28;20013;-47
2021/12/22 04:57:08;;;;;;;21.58;9.23;;;-2.30;99.90;;;;;;5070795;28;20025;-48
2021/12/22 04:59:34;;;;;;;23.48;8.85;;;-2.20;99.90;;;;;;5070846;28;20213;-47
2021/12/22 05:01:59;;;;;;;28.90;10.05;;;-2.30;99.90;;;;;;5070974;28;20029;-47
2021/12/22 05:04:25;;;;;;;43.58;11.50;;;-2.20;99.90;;;;;;5070757;28;20036;-47
2021/12/22 05:06:51;;;;;;;22.75;9.63;;;-2.40;99.90;;;;;;5070906;28;20025;-49
2021/12/22 05:09:17;;;;;;;23.77;9.50;;;-2.40;99.90;;;;;;5070766;28;20111;-47
2021/12/22 05:11:42;;;;;;;24.58;9.55;;;-2.30;99.90;;;;;;5070279;28;20100;-48
2021/12/22 05:14:08;;;;;;;19.08;7.63;;;-2.30;99.90;;;;;;5071278;28;20082;-47
2021/12/22 05:16:36;;;;;;;24.85;9.55;;;-2.30;99.90;;;;;;5070909;28;20516;-48
2021/12/22 05:19:15;;;;;;;30.77;9.73;;;-2.30;99.90;;;;;;5070092;28;20309;-48
2021/12/22 05:21:42;;;;;;;39.13;10.35;;;-2.40;99.90;;;;;;5069538;28;20016;-47
2021/12/22 05:24:08;;;;;;;49.83;12.18;;;-2.50;99.90;;;;;;5070857;28;20486;-47
2021/12/22 05:26:33;;;;;;;32.70;12.85;;;-2.50;99.90;;;;;;5070724;28;20029;-47
2021/12/22 05:28:59;;;;;;;65.00;14.05;;;-2.50;99.90;;;;;;5068957;28;20036;-46
2021/12/22 05:31:25;;;;;;;26.75;10.77;;;-2.60;99.90;;;;;;5071641;28;20072;-49
2021/12/22 05:33:51;;;;;;;24.85;10.18;;;-2.60;99.90;;;;;;5082788;28;20370;-48
2021/12/22 05:36:17;;;;;;;24.13;9.95;;;-2.70;99.90;;;;;;5070820;28;20028;-47
2021/12/22 05:38:42;;;;;;;58.97;13.07;;;-2.60;99.90;;;;;;5070197;28;20052;-46
2021/12/22 05:41:08;;;;;;;45.53;12.80;;;-2.60;99.90;;;;;;5070881;28;20028;-47
2021/12/22 05:43:34;;;;;;;77.45;16.48;;;-2.50;99.90;;;;;;5069866;28;20055;-47
2021/12/22 05:46:00;;;;;;;31.05;12.10;;;-2.60;99.90;;;;;;5077656;28;20020;-47
2021/12/22 05:48:26;;;;;;;33.50;11.88;;;-2.50;99.90;;;;;;5082983;28;20469;-47
2021/12/22 05:50:56;;;;;;;28.08;11.75;;;-2.50;99.90;;;;;;5090867;28;20601;-47
2021/12/22 05:53:21;;;;;;;49.42;16.58;;;-2.60;99.90;;;;;;5090654;28;20016;-48
2021/12/22 05:55:47;;;;;;;37.47;13.88;;;-2.50;99.90;;;;;;5090698;28;20512;-47
2021/12/22 05:58:12;;;;;;;35.78;13.10;;;-2.50;99.90;;;;;;5089969;28;20386;-50
2021/12/22 06:00:38;;;;;;;28.52;12.77;;;-2.50;99.90;;;;;;5080141;28;20254;-47
2021/12/22 06:03:04;;;;;;;56.20;15.25;;;-2.50;99.90;;;;;;5081567;28;20031;-50
2021/12/22 06:05:29;;;;;;;29.95;12.75;;;-2.50;99.90;;;;;;5082286;28;20028;-48
2021/12/22 06:07:54;;;;;;;29.67;11.98;;;-2.50;99.90;;;;;;5081432;28;20492;-47
2021/12/22 06:10:21;;;;;;;34.67;13.98;;;-2.40;99.90;;;;;;5090245;28;20264;-47
2021/12/22 06:12:47;;;;;;;37.92;14.38;;;-2.40;99.90;;;;;;5082447;28;20364;-47
2021/12/22 06:15:12;;;;;;;31.23;13.10;;;-2.40;99.90;;;;;;5081760;28;20028;-47
2021/12/22 06:17:37;;;;;;;51.08;15.48;;;-2.40;99.90;;;;;;5090139;28;20008;-50
2021/12/22 06:20:05;;;;;;;35.20;13.43;;;-2.40;99.90;;;;;;5090147;28;20092;-47
2021/12/22 06:22:33;;;;;;;32.65;13.32;;;-2.50;99.90;;;;;;5088836;28;20568;-47
2021/12/22 06:24:58;;;;;;;34.15;13.95;;;-2.50;99.90;;;;;;5090100;28;20027;-47
2021/12/22 06:27:24;;;;;;;39.25;13.90;;;-2.50;99.90;;;;;;5082404;28;20020;-47
2021/12/22 06:29:49;;;;;;;35.00;14.07;;;-2.50;99.90;;;;;;5081966;28;20571;-47
2021/12/22 06:32:15;;;;;;;36.85;12.13;;;-2.50;99.90;;;;;;5069685;28;20031;-47
2021/12/22 06:34:40;;;;;;;33.38;12.57;;;-2.40;99.90;;;;;;5069630;28;20031;-47
2021/12/22 06:37:06;;;;;;;35.45;13.10;;;-2.40;99.90;;;;;;5069231;28;20033;-46
2021/12/22 06:39:32;;;;;;;34.15;12.98;;;-2.40;99.90;;;;;;5068512;28;20047;-47
2021/12/22 06:41:58;;;;;;;33.47;13.05;;;-2.40;99.90;;;;;;5068674;28;20329;-49
2021/12/22 06:44:24;;;;;;;47.38;14.70;;;-2.40;99.90;;;;;;5069187;28;20100;-47
2021/12/22 06:46:50;;;;;;;39.45;14.45;;;-2.30;99.90;;;;;;5069007;28;20307;-47
2021/12/22 06:49:16;;;;;;;38.58;13.70;;;-2.30;99.90;;;;;;5068703;28;20042;-47
2021/12/22 06:51:42;;;;;;;40.35;14.13;;;-2.40;99.90;;;;;;5069554;28;20036;-46
2021/12/22 06:54:07;;;;;;;50.75;12.25;;;-2.40;99.90;;;;;;5085215;28;20034;-47
2021/12/22 06:56:33;;;;;;;85.93;14.75;;;-2.60;99.90;;;;;;5069283;28;20019;-47
2021/12/22 06:59:00;;;;;;;28.02;9.45;;;-2.90;99.90;;;;;;5081421;28;20426;-46
2021/12/22 07:01:26;;;;;;;31.05;11.20;;;-2.90;99.90;;;;;;5079945;28;20099;-47
2021/12/22 07:03:51;;;;;;;34.20;11.02;;;-2.80;99.90;;;;;;5072777;28;20103;-48
2021/12/22 07:06:17;;;;;;;36.13;13.38;;;-2.80;99.90;;;;;;5086826;28;20044;-47
2021/12/22 07:08:43;;;;;;;32.92;12.32;;;-2.90;99.90;;;;;;5086565;28;20485;-47
2021/12/22 07:11:09;;;;;;;29.83;10.65;;;-2.80;99.90;;;;;;5078923;28;20024;-47
2021/12/22 07:13:35;;;;;;;44.63;14.35;;;-2.80;99.90;;;;;;5071967;28;20555;-47
2021/12/22 07:16:01;;;;;;;47.05;13.15;;;-2.80;99.90;;;;;;5075308;28;20035;-47
2021/12/22 07:18:27;;;;;;;36.60;11.68;;;-2.80;99.90;;;;;;5081467;28;20028;-46
2021/12/22 07:20:52;;;;;;;33.42;14.20;;;-2.80;99.90;;;;;;5081900;28;20081;-47
2021/12/22 07:23:18;;;;;;;48.75;14.32;;;-2.80;99.90;;;;;;5075006;28;20026;-46
2021/12/22 07:25:43;;;;;;;26.90;11.20;;;-2.70;99.90;;;;;;5080265;28;20039;-47
2021/12/22 07:28:10;;;;;;;54.90;14.30;;;-2.80;99.90;;;;;;5076838;28;20051;-46
2021/12/22 07:30:39;;;;;;;52.80;13.82;;;-2.80;99.90;;;;;;5074763;28;20043;-46
2021/12/22 07:33:05;;;;;;;32.58;13.27;;;-3.00;99.90;;;;;;5076100;28;20454;-46
2021/12/22 07:35:49;;;;;;;50.28;13.55;;;-3.00;99.90;;;;;;5068420;28;20060;-46
2021/12/22 07:38:24;;;;;;;65.53;15.32;;;-2.90;99.90;;;;;;5067931;28;20406;-46
2021/12/22 07:40:52;;;;;;;44.78;15.85;;;-2.90;99.90;;;;;;5067257;28;20495;-45
2021/12/22 07:43:17;;;;;;;70.03;14.35;;;-3.00;99.90;;;;;;5068484;28;20025;-46
2021/12/22 07:45:43;;;;;;;65.25;15.93;;;-3.10;99.90;;;;;;5068467;28;20282;-46
2021/12/22 07:48:09;;;;;;;60.72;13.52;;;-3.10;99.90;;;;;;5067680;28;20024;-50
2021/12/22 07:50:35;;;;;;;33.42;12.77;;;-3.00;99.90;;;;;;5066992;28;20487;-45
2021/12/22 07:53:00;;;;;;;41.40;14.43;;;-2.90;99.90;;;;;;5067153;28;20029;-46
2021/12/22 07:55:26;;;;;;;33.55;12.77;;;-2.90;99.90;;;;;;5068131;28;20094;-47
2021/12/22 07:57:51;;;;;;;36.80;12.45;;;-2.80;99.90;;;;;;5066387;28;20358;-45
2021/12/22 08:00:17;;;;;;;29.65;11.68;;;-2.70;99.90;;;;;;5068351;28;20037;-45
2021/12/22 08:02:43;;;;;;;32.13;11.80;;;-2.90;99.90;;;;;;5076146;28;20079;-46
2021/12/22 08:05:08;;;;;;;33.88;13.70;;;-2.80;99.90;;;;;;5062266;28;20299;-46
2021/12/22 08:07:34;;;;;;;31.05;13.68;;;-2.80;99.90;;;;;;5068201;28;20032;-48
2021/12/22 08:10:01;;;;;;;31.42;12.43;;;-2.80;99.90;;;;;;5071804;28;20047;-49
2021/12/22 08:12:26;;;;;;;32.67;14.52;;;-2.90;99.90;;;;;;5071009;28;20062;-49
2021/12/22 08:14:52;;;;;;;28.27;10.75;;;-2.80;99.90;;;;;;5085731;28;20107;-46
2021/12/22 08:17:17;;;;;;;21.00;9.73;;;-2.70;99.90;;;;;;5091229;28;20027;-46
2021/12/22 08:19:43;;;;;;;27.77;10.00;;;-2.70;99.90;;;;;;5080986;28;20024;-47
2021/12/22 08:22:09;;;;;;;23.45;10.18;;;-2.60;99.90;;;;;;5071193;28;20089;-46
2021/12/22 08:24:37;;;;;;;26.52;10.60;;;-2.60;99.90;;;;;;5071399;28;20107;-46
2021/12/22 08:27:03;;;;;;;25.25;10.98;;;-2.60;99.90;;;;;;5070228;28;20066;-47
2021/12/22 08:29:28;;;;;;;31.67;12.02;;;-2.50;99.90;;;;;;5069969;28;20112;-46
2021/12/22 08:31:54;;;;;;;34.67;13.43;;;-2.40;99.90;;;;;;5071863;28;20103;-47
2021/12/22 08:34:27;;;;;;;33.55;13.82;;;-2.40;99.90;;;;;;5071526;28;20028;-46
2021/12/22 08:39:40;;;;;;;26.95;10.40;;;-2.40;99.90;;;;;;5071269;28;20043;-47
2021/12/22 08:42:06;;;;;;;23.38;10.85;;;-2.30;99.90;;;;;;5070390;28;20468;-49
2021/12/22 08:44:33;;;;;;;23.75;9.18;;;-2.50;99.90;;;;;;5077889;28;20017;-46
2021/12/22 08:46:59;;;;;;;28.40;10.70;;;-2.50;99.90;;;;;;5089031;28;20315;-48
2021/12/22 08:49:25;;;;;;;25.63;11.57;;;-2.60;99.90;;;;;;5082694;28;20071;-46
2021/12/22 08:51:51;;;;;;;26.40;12.00;;;-2.50;99.90;;;;;;5071035;28;20048;-46
2021/12/22 08:54:18;;;;;;;29.45;11.88;;;-2.60;99.90;;;;;;5070905;28;20021;-46
2021/12/22 08:56:44;;;;;;;26.75;10.35;;;-2.50;99.90;;;;;;5070980;28;20025;-47
2021/12/22 08:59:11;;;;;;;21.23;10.68;;;-2.40;99.90;;;;;;5069646;28;20028;-47
2021/12/22 09:01:36;;;;;;;26.77;10.85;;;-2.40;99.90;;;;;;5070506;28;20108;-47
2021/12/22 09:04:02;;;;;;;25.92;11.95;;;-2.30;99.90;;;;;;5082581;28;20115;-48
2021/12/22 09:06:28;;;;;;;26.45;11.82;;;-2.30;99.90;;;;;;5090671;28;20036;-46
2021/12/22 09:08:54;;;;;;;34.63;14.25;;;-2.40;99.90;;;;;;5090536;28;20027;-47
2021/12/22 09:11:20;;;;;;;26.90;11.85;;;-2.40;99.90;;;;;;5078698;28;20065;-46
2021/12/22 09:13:46;;;;;;;29.63;13.82;;;-2.20;99.90;;;;;;5079716;28;20032;-49
2021/12/22 09:16:12;;;;;;;34.75;14.65;;;-2.20;99.90;;;;;;5082415;28;20173;-47
2021/12/22 09:18:38;;;;;;;24.63;11.90;;;-2.20;99.90;;;;;;5090313;28;20024;-47
2021/12/22 09:21:06;;;;;;;33.42;14.93;;;-2.30;99.90;;;;;;5089843;28;20036;-46
2021/12/22 09:23:31;;;;;;;36.83;14.32;;;-2.30;99.90;;;;;;5091104;28;20024;-46
2021/12/22 09:25:57;;;;;;;41.20;16.20;;;-2.30;99.90;;;;;;5091006;28;20028;-46
2021/12/22 09:28:22;;;;;;;35.08;14.90;;;-2.20;99.90;;;;;;5079189;28;20035;-47
2021/12/22 09:30:49;;;;;;;31.35;13.98;;;-2.30;99.90;;;;;;5074492;28;20021;-48
2021/12/22 09:33:18;;;;;;;34.78;15.23;;;-2.20;99.90;;;;;;5077484;28;20025;-46
2021/12/22 09:35:46;;;;;;;30.10;12.20;;;-2.20;99.90;;;;;;5075031;28;20437;-47
2021/12/22 09:38:12;;;;;;;32.13;15.68;;;-2.20;99.90;;;;;;5070082;28;20040;-46
2021/12/22 09:40:38;;;;;;;35.03;15.48;;;-2.10;99.90;;;;;;5070670;28;20032;-46
2021/12/22 09:43:05;;;;;;;33.95;14.85;;;-2.00;99.90;;;;;;5070629;28;20511;-49
2021/12/22 09:45:32;;;;;;;32.72;14.50;;;-2.00;99.90;;;;;;5070537;28;20036;-46
2021/12/22 09:50:49;;;;;;;42.63;17.48;;;-1.80;99.90;;;;;;5070222;28;20392;-48
2021/12/22 09:53:16;;;;;;;;;;;-1.80;99.90;;;;;;5070816;28;20035;-46
2021/12/22 09:55:42;;;;;;;34.65;15.18;;;-2.00;99.90;;;;;;5070289;28;20149;-47
2021/12/22 09:58:09;;;;;;;35.70;14.18;;;-2.00;99.90;;;;;;5069717;28;20107;-46
2021/12/22 10:00:36;;;;;;;39.72;15.85;;;-2.10;99.90;;;;;;5068987;28;20035;-46
2021/12/22 10:03:04;;;;;;;37.25;16.35;;;-2.10;99.90;;;;;;5077937;28;20043;-48
2021/12/22 10:05:30;;;;;;;35.67;15.82;;;-1.80;99.90;;;;;;5084109;28;20042;-47
2021/12/22 10:08:07;;;;;;;42.45;16.83;;;-1.70;99.90;;;;;;5089724;28;20107;-46
2021/12/22 10:10:34;;;;;;;37.13;15.55;;;-1.40;99.90;;;;;;5090172;28;20399;-47
2021/12/22 10:13:08;;;;;;;53.05;17.08;;;-1.30;99.90;;;;;;5087946;28;20024;-47
2021/12/22 10:15:35;;;;;;;33.17;15.80;;;-1.10;99.90;;;;;;5071962;28;20062;-47
2021/12/22 10:18:10;;;;;;;33.92;15.15;;;-1.10;99.90;;;;;;5087294;28;20020;-48
2021/12/22 10:20:36;;;;;;;39.95;18.60;;;-1.10;99.90;;;;;;5088607;28;20075;-50
2021/12/22 10:23:17;;;;;;;41.92;17.52;;;-1.00;99.90;;;;;;5089931;28;20028;-47
2021/12/22 10:25:43;;;;;;;40.65;18.05;;;-1.00;99.90;;;;;;5089845;28;20032;-47
2021/12/22 10:28:16;;;;;;;41.58;18.63;;;-0.90;99.90;;;;;;5077584;28;20025;-47
2021/12/22 10:30:42;;;;;;;40.20;17.75;;;-0.90;99.90;;;;;;5081632;28;20495;-48
2021/12/22 10:33:11;;;;;;;42.28;16.95;;;-0.90;99.90;;;;;;5077569;28;20032;-47
2021/12/22 10:35:38;;;;;;;35.78;16.98;;;-0.90;99.90;;;;;;5068003;28;20029;-48
2021/12/22 10:38:05;;;;;;;36.70;16.27;;;-1.10;99.90;;;;;;5071305;28;20028;-48
2021/12/22 10:40:34;;;;;;;36.70;15.65;;;-1.00;99.90;;;;;;5071898;28;20036;-49
2021/12/22 10:43:01;;;;;;;38.47;16.38;;;-0.90;99.90;;;;;;5074346;28;20499;-47
2021/12/22 10:45:30;;;;;;;42.38;18.45;;;-0.80;99.90;;;;;;5088274;28;20035;-47
2021/12/22 10:50:43;;;;;;;38.25;16.77;;;-0.40;99.90;;;;;;5076826;28;20093;-49
2021/12/22 10:53:11;;;;;;;36.97;17.95;;;-0.20;99.90;;;;;;5086795;28;20029;-47
2021/12/22 10:55:43;;;;;;;35.85;14.98;;;-0.20;99.90;;;;;;5089500;28;20661;-47
2021/12/22 10:58:15;;;;;;;37.38;17.13;;;0.00;99.90;;;;;;5094836;28;20099;-47
2021/12/22 11:00:40;;;;;;;38.03;17.30;;;0.10;99.90;;;;;;5084403;28;20019;-47
2021/12/22 11:03:14;;;;;;;37.30;16.05;;;0.20;99.90;;;;;;5089646;28;20092;-48
2021/12/22 11:05:48;;;;;;;43.22;18.65;;;0.30;99.90;;;;;;5087597;28;20028;-48
2021/12/22 11:08:25;;;;;;;38.67;17.63;;;0.30;99.90;;;;;;5088621;28;20017;-47
2021/12/22 11:10:52;;;;;;;42.42;18.17;;;0.30;99.90;;;;;;5089200;28;20024;-47
2021/12/22 11:13:20;;;;;;;37.45;17.20;;;0.30;99.90;;;;;;5078935;28;20024;-47
2021/12/22 11:15:46;;;;;;;42.28;18.58;;;0.30;99.90;;;;;;5079065;28;20020;-48
2021/12/22 11:18:30;;;;;;;41.83;18.48;;;0.20;99.90;;;;;;5072216;28;20107;-47
2021/12/22 11:21:33;;;;;;;38.00;18.30;;;0.10;99.90;;;;;;5069087;28;20020;-47
2021/12/22 11:23:59;;;;;;;40.05;17.40;;;0.20;99.90;;;;;;5055222;28;20039;-49
2021/12/22 11:26:25;;;;;;;40.97;17.58;;;0.20;99.90;;;;;;5068489;28;20054;-47
2021/12/22 11:28:51;;;;;;;38.85;18.55;;;0.30;99.90;;;;;;5067355;28;20039;-43
2021/12/22 11:31:17;;;;;;;41.47;19.42;;;0.30;99.90;;;;;;5068777;28;20017;-43
2021/12/22 11:33:45;;;;;;;43.10;20.67;;;0.40;99.90;;;;;;5076247;28;20019;-44
2021/12/22 11:36:12;;;;;;;47.03;20.60;;;0.40;99.90;;;;;;5088055;28;20424;-43
2021/12/22 11:38:40;;;;;;;47.05;20.63;;;0.30;99.90;;;;;;5081428;28;21387;-43
2021/12/22 11:41:15;;;;;;;48.38;19.80;;;0.20;99.90;;;;;;5074895;28;20021;-43
2021/12/22 11:43:43;;;;;;;49.78;18.20;;;0.20;99.90;;;;;;5081272;28;20375;-43
2021/12/22 11:46:10;;;;;;;49.53;20.75;;;0.20;99.90;;;;;;5079745;28;20024;-43
2021/12/22 11:48:37;;;;;;;40.55;19.90;;;0.30;99.90;;;;;;5071381;28;20016;-43
2021/12/22 11:51:21;;;;;;;48.75;20.23;;;0.50;99.90;;;;;;5084178;28;20028;-45
2021/12/22 11:53:55;;;;;;;38.60;19.13;;;0.60;99.90;;;;;;5088681;28;20186;-41
2021/12/22 11:56:47;;;;;;;40.28;19.30;;;0.70;99.90;;;;;;5070622;28;20073;-41
2021/12/22 11:59:30;;;;;;;43.53;18.80;;;0.80;99.90;;;;;;5070475;28;20060;-43
2021/12/22 12:02:33;;;;;;;38.80;18.35;;;0.70;99.90;;;;;;5071834;28;20413;-43
2021/12/22 12:05:28;;;;;;;40.78;18.40;;;0.80;99.90;;;;;;5083947;28;20497;-43
2021/12/22 12:07:59;;;;;;;35.45;16.77;;;0.70;99.90;;;;;;5091392;28;20035;-44
2021/12/22 12:10:42;;;;;;;41.83;18.88;;;0.70;99.90;;;;;;5091720;28;20028;-43
2021/12/22 12:13:37;;;;;;;42.33;17.40;;;0.60;99.90;;;;;;5074177;28;20032;-43
2021/12/22 12:22:16;;;;;;;33.72;17.27;;;0.40;99.90;;;;;;5091642;28;20035;-43
2021/12/22 12:24:54;;;;;;;37.40;17.73;;;0.50;99.90;;;;;;5091605;28;20027;-43
2021/12/22 12:27:33;;;;;;;33.58;15.00;;;0.50;99.90;;;;;;5091442;28;20043;-43
2021/12/22 12:30:00;;;;;;;40.53;17.05;;;0.50;99.90;;;;;;5091588;28;20081;-44
2021/12/22 12:32:45;;;;;;;39.92;17.05;;;0.50;99.90;;;;;;5092034;28;20043;-43
2021/12/22 12:35:20;;;;;;;32.25;15.68;;;0.50;99.90;;;;;;5091979;28;20032;-44
2021/12/22 12:38:15;;;;;;;37.85;16.98;;;0.60;99.90;;;;;;5074257;28;20016;-44
2021/12/22 12:41:05;;;;;;;32.83;15.68;;;0.70;99.90;;;;;;5074904;28;20545;-43
2021/12/22 12:43:40;;;;;;;34.30;17.63;;;0.70;99.90;;;;;;5067449;28;20024;-44
2021/12/22 12:46:29;;;;;;;36.95;17.65;;;0.60;99.90;;;;;;5072590;28;20506;-43
2021/12/22 12:49:06;;;;;;;33.75;15.75;;;0.60;99.90;;;;;;5069807;28;20051;-43
2021/12/22 12:51:49;;;;;;;38.72;17.02;;;0.70;99.90;;;;;;5070682;28;20082;-43
2021/12/22 12:54:18;;;;;;;38.90;18.13;;;0.70;99.90;;;;;;5068600;28;20599;-42
2021/12/22 12:56:47;;;;;;;36.50;16.67;;;0.60;99.90;;;;;;5067832;28;20021;-42
2021/12/22 12:59:15;;;;;;;34.40;16.08;;;0.50;99.90;;;;;;5069048;28;20393;-43
2021/12/22 13:01:47;;;;;;;34.95;15.48;;;0.50;99.90;;;;;;5070461;28;20024;-42